createdAt,value
2018-02-10T00:04:03.180Z,0.60
2018-02-10T00:09:05.835Z,0.60
2018-02-10T00:14:11.573Z,0.50
2018-02-10T00:19:15.328Z,0.50
2018-02-10T00:24:17.939Z,0.50
2018-02-10T00:29:21.065Z,0.50
2018-02-10T00:34:24.322Z,0.50
2018-02-10T00:39:27.478Z,0.50
2018-02-10T00:44:30.624Z,0.50
2018-02-10T00:49:35.258Z,0.50
2018-02-10T00:54:38.254Z,0.50
2018-02-10T00:59:41.239Z,0.50
2018-02-10T01:04:45.275Z,0.50
2018-02-10T01:09:48.856Z,0.40
2018-02-10T01:14:52.168Z,0.50
2018-02-10T01:19:55.051Z,0.40
2018-02-10T01:24:57.993Z,0.40
2018-02-10T01:30:01.303Z,0.50
2018-02-10T01:35:05.277Z,0.40
2018-02-10T01:40:08.923Z,0.40
2018-02-10T01:45:11.930Z,0.40
2018-02-10T01:50:21.801Z,0.40
2018-02-10T01:55:25.739Z,0.40
2018-02-10T02:00:29.486Z,0.40
2018-02-10T02:05:33.553Z,0.40
2018-02-10T02:10:37.133Z,0.40
2018-02-10T02:15:40.278Z,0.40
2018-02-10T02:20:43.236Z,0.40
2018-02-10T02:25:45.980Z,0.40
2018-02-10T02:30:48.861Z,0.40
2018-02-10T02:35:52.637Z,0.40
2018-02-10T02:40:55.646Z,0.30
2018-02-10T02:45:59.789Z,0.30
2018-02-10T02:51:03.744Z,0.30
2018-02-10T02:56:08.398Z,0.30
2018-02-10T03:01:12.137Z,0.30
2018-02-10T03:06:15.607Z,0.30
2018-02-10T03:11:20.343Z,0.30
2018-02-10T03:16:25.947Z,0.30
2018-02-10T03:21:29.248Z,0.30
2018-02-10T03:26:32.679Z,0.30
2018-02-10T03:31:36.561Z,0.30
2018-02-10T03:36:40.647Z,0.30
2018-02-10T03:41:44.970Z,0.30
2018-02-10T03:46:50.055Z,0.30
2018-02-10T03:51:53.563Z,0.30
2018-02-10T03:56:58.098Z,0.30
2018-02-10T04:02:01.419Z,0.30
2018-02-10T04:07:06.058Z,0.30
2018-02-10T04:12:10.006Z,0.30
2018-02-10T04:17:13.233Z,0.30
2018-02-10T04:22:16.153Z,0.30
2018-02-10T04:27:19.112Z,0.30
2018-02-10T04:32:22.675Z,0.30
2018-02-10T04:37:28.151Z,0.30
2018-02-10T04:42:31.699Z,0.30
2018-02-10T04:47:39.027Z,0.30
2018-02-10T04:52:42.110Z,0.20
2018-02-10T04:57:45.263Z,0.20
2018-02-10T05:02:49.990Z,0.20
2018-02-10T05:07:53.841Z,0.30
2018-02-10T05:12:58.880Z,0.20
2018-02-10T05:18:01.928Z,0.20
2018-02-10T05:23:05.659Z,0.20
2018-02-10T05:28:08.589Z,0.20
2018-02-10T05:33:11.590Z,0.20
2018-02-10T05:38:15.609Z,0.20
2018-02-10T05:43:20.044Z,0.20
2018-02-10T05:48:24.679Z,0.20
2018-02-10T05:53:28.760Z,0.20
2018-02-10T05:58:34.015Z,0.20
2018-02-10T06:03:37.535Z,0.20
2018-02-10T06:08:41.601Z,0.20
2018-02-10T06:13:45.512Z,0.20
2018-02-10T06:18:49.791Z,0.20
2018-02-10T06:23:53.282Z,0.20
2018-02-10T06:28:56.481Z,0.20
2018-02-10T06:33:59.715Z,0.20
2018-02-10T06:39:02.708Z,0.20
2018-02-10T06:44:05.816Z,0.20
2018-02-10T06:49:11.208Z,0.20
2018-02-10T06:54:15.086Z,0.20
2018-02-10T06:59:19.577Z,0.20
2018-02-10T07:04:22.916Z,0.20
2018-02-10T07:09:26.031Z,0.20
2018-02-10T07:14:29.937Z,0.20
2018-02-10T07:19:34.422Z,0.20
2018-02-10T07:24:38.824Z,0.20
2018-02-10T07:29:42.181Z,0.20
2018-02-10T07:34:46.170Z,0.20
2018-02-10T07:39:49.257Z,0.20
2018-02-10T07:44:52.807Z,0.20
2018-02-10T07:49:55.829Z,0.30
2018-02-10T07:55:01.257Z,0.30
2018-02-10T08:00:04.136Z,0.30
2018-02-10T08:05:06.936Z,0.30
2018-02-10T08:10:15.510Z,0.30
2018-02-10T08:15:19.087Z,0.30
2018-02-10T08:20:21.981Z,0.40
2018-02-10T08:25:25.852Z,0.30
2018-02-10T08:30:31.173Z,0.40
2018-02-10T08:35:34.183Z,0.40
2018-02-10T08:40:38.346Z,0.40
2018-02-10T08:45:42.305Z,0.40
2018-02-10T08:50:46.056Z,0.40
2018-02-10T08:55:48.955Z,0.50
2018-02-10T09:00:57.303Z,0.50
2018-02-10T09:06:01.042Z,0.50
2018-02-10T09:11:05.637Z,0.50
2018-02-10T09:16:10.343Z,0.50
2018-02-10T09:21:17.287Z,0.60
2018-02-10T09:26:20.458Z,0.60
2018-02-10T09:31:24.552Z,0.60
2018-02-10T09:36:30.112Z,0.60
2018-02-10T09:41:35.499Z,0.70
2018-02-10T09:46:39.116Z,0.60
2018-02-10T09:51:44.743Z,0.70
2018-02-10T09:56:49.466Z,0.70
2018-02-10T10:01:52.312Z,0.70
2018-02-10T10:06:55.210Z,0.80
2018-02-10T10:11:59.299Z,0.80
2018-02-10T10:17:06.449Z,0.80
2018-02-10T10:22:10.645Z,0.90
2018-02-10T10:27:16.109Z,0.90
2018-02-10T10:32:22.233Z,1.00
2018-02-10T10:37:26.091Z,1.00
2018-02-10T10:42:34.493Z,1.00
2018-02-10T10:47:40.438Z,1.10
2018-02-10T10:52:46.397Z,1.10
2018-02-10T10:57:51.589Z,1.20
2018-02-10T11:03:03.084Z,1.20
2018-02-10T11:13:16.703Z,1.30
2018-02-10T11:18:29.344Z,1.40
2018-02-10T11:23:33.577Z,1.50
2018-02-10T11:28:37.683Z,1.50
2018-02-10T11:33:45.125Z,1.60
2018-02-10T11:38:52.443Z,1.70
2018-02-10T11:43:56.533Z,1.70
2018-02-10T11:49:03.385Z,1.80
2018-02-10T11:54:12.440Z,1.90
2018-02-10T11:59:16.502Z,1.90
2018-02-10T12:04:21.905Z,2.00
2018-02-10T12:09:26.269Z,2.00
2018-02-10T12:14:30.335Z,2.00
2018-02-10T12:19:35.010Z,2.00
2018-02-10T12:24:41.559Z,2.10
2018-02-10T12:34:57.579Z,2.10
2018-02-10T12:40:03.580Z,2.10
2018-02-10T12:45:09.163Z,2.20
2018-02-10T12:50:16.346Z,2.10
2018-02-10T13:00:31.007Z,2.20
2018-02-10T13:05:34.598Z,2.20
2018-02-10T13:10:38.451Z,2.20
2018-02-10T13:15:46.021Z,2.20
2018-02-10T13:20:51.528Z,2.20
2018-02-10T13:25:56.686Z,2.20
2018-02-10T13:31:00.396Z,2.20
2018-02-10T13:36:05.781Z,2.20
2018-02-10T13:41:09.245Z,2.20
2018-02-10T13:46:14.325Z,2.20
2018-02-10T13:51:23.757Z,2.20
2018-02-10T13:56:27.532Z,2.20
2018-02-10T14:01:35.446Z,2.20
2018-02-10T14:06:41.624Z,2.20
2018-02-10T14:11:46.715Z,2.20
2018-02-10T14:22:07.276Z,2.20
2018-02-10T14:27:13.076Z,2.10
2018-02-10T14:38:23.768Z,2.10
2018-02-10T14:43:42.904Z,2.10
2018-02-10T14:48:57.486Z,2.10
2018-02-10T14:54:11.025Z,2.10
2018-02-10T14:59:16.611Z,2.10
2018-02-10T15:04:40.538Z,2.10
2018-02-10T15:09:48.871Z,2.10
2018-02-10T15:14:57.962Z,2.10
2018-02-10T15:36:42.580Z,2.00
2018-02-10T15:42:02.928Z,2.00
2018-02-10T15:52:48.557Z,1.90
2018-02-10T15:58:19.296Z,1.90
2018-02-10T16:03:33.559Z,1.80
2018-02-10T16:08:46.085Z,1.90
2018-02-10T16:13:53.422Z,1.90
2018-02-10T16:18:58.884Z,1.80
2018-02-10T16:24:06.283Z,1.80
2018-02-10T16:29:17.001Z,1.80
2018-02-10T16:34:20.584Z,1.80
2018-02-10T16:39:27.854Z,1.80
2018-02-10T16:44:35.517Z,1.70
2018-02-10T16:49:42.536Z,1.70
2018-02-10T16:54:47.708Z,1.70
2018-02-10T16:59:55.856Z,1.70
2018-02-10T17:05:02.042Z,1.70
2018-02-10T17:15:19.781Z,1.70
2018-02-10T17:20:35.201Z,1.60
2018-02-10T17:25:43.803Z,1.60
2018-02-10T17:30:53.589Z,1.60
2018-02-10T17:36:05.990Z,1.60
2018-02-10T17:41:16.757Z,1.60
2018-02-10T17:46:28.410Z,1.60
2018-02-10T17:51:31.748Z,1.60
2018-02-10T17:56:49.545Z,1.50
2018-02-10T18:01:57.729Z,1.50
2018-02-10T18:07:08.418Z,1.50
2018-02-10T18:12:22.308Z,1.50
2018-02-10T18:17:28.226Z,1.50
2018-02-10T18:22:32.912Z,1.50
2018-02-10T18:27:40.202Z,1.50
2018-02-10T18:32:47.406Z,1.50
2018-02-10T18:43:48.127Z,1.50
2018-02-10T18:48:56.439Z,1.50
2018-02-10T18:54:01.331Z,1.50
2018-02-10T18:59:10.346Z,1.40
2018-02-10T19:04:16.810Z,1.50
2018-02-10T19:09:21.765Z,1.40
2018-02-10T19:19:48.976Z,1.40
2018-02-10T19:30:08.450Z,1.40
2018-02-10T19:35:34.488Z,1.40
2018-02-10T19:45:54.784Z,1.40
2018-02-10T19:51:00.660Z,1.30
2018-02-10T19:56:10.142Z,1.30
2018-02-10T20:11:49.255Z,1.30
2018-02-10T20:16:55.670Z,1.30
2018-02-10T20:22:02.428Z,1.30
2018-02-10T20:27:30.108Z,1.30
2018-02-10T20:32:38.631Z,1.30
2018-02-10T20:37:44.806Z,1.30
2018-02-10T20:42:52.608Z,1.30
2018-02-10T20:48:06.736Z,1.20
2018-02-10T20:53:14.752Z,1.20
2018-02-10T20:58:21.754Z,1.20
2018-02-10T21:08:47.542Z,1.20
2018-02-10T21:13:56.828Z,1.20
2018-02-10T21:19:06.094Z,1.20
2018-02-10T21:24:11.885Z,1.20
2018-02-10T21:29:14.956Z,1.10
2018-02-10T21:34:27.644Z,1.20
2018-02-10T21:39:43.567Z,1.20
2018-02-10T21:44:49.694Z,1.20
2018-02-10T21:50:02.779Z,1.10
2018-02-10T21:55:09.686Z,1.10
2018-02-10T22:00:16.436Z,1.10
2018-02-10T22:05:25.124Z,1.10
2018-02-10T22:10:32.649Z,1.10
2018-02-10T22:15:39.455Z,1.10
2018-02-10T22:20:45.176Z,1.10
2018-02-10T22:31:11.732Z,1.10
2018-02-10T22:36:19.483Z,1.10
2018-02-10T22:41:23.397Z,1.10
2018-02-10T22:46:32.372Z,1.10
2018-02-10T22:51:43.716Z,1.10
2018-02-10T22:56:52.331Z,1.10
2018-02-10T23:02:02.340Z,1.10
2018-02-10T23:07:06.355Z,1.10
2018-02-10T23:12:12.445Z,1.10
2018-02-10T23:17:32.921Z,1.10
2018-02-10T23:22:38.560Z,1.10
2018-02-10T23:27:45.080Z,1.10
2018-02-10T23:32:51.241Z,1.10
2018-02-10T23:37:56.161Z,1.00
2018-02-10T23:43:04.459Z,1.10
2018-02-10T23:48:16.811Z,1.00
2018-02-10T23:53:29.389Z,1.00
2018-02-10T23:58:35.621Z,1.00
